sensor_id;sensor_type;location;lat;lon;timestamp;temperature;humidity
4840;DHT22;2434;48.486;7.964;2022-11-14T00:01:10;6.90;85.20
4840;DHT22;2434;48.486;7.964;2022-11-14T00:03:58;6.90;85.20
4840;DHT22;2434;48.486;7.964;2022-11-14T00:06:45;6.90;85.20
4840;DHT22;2434;48.486;7.964;2022-11-14T00:09:32;6.90;85.40
4840;DHT22;2434;48.486;7.964;2022-11-14T00:12:18;6.90;85.30
4840;DHT22;2434;48.486;7.964;2022-11-14T00:15:06;6.90;85.60
4840;DHT22;2434;48.486;7.964;2022-11-14T00:17:55;6.90;85.90
4840;DHT22;2434;48.486;7.964;2022-11-14T00:20:41;6.90;85.70
4840;DHT22;2434;48.486;7.964;2022-11-14T00:23:28;6.90;86.00
4840;DHT22;2434;48.486;7.964;2022-11-14T00:26:15;6.90;85.30
4840;DHT22;2434;48.486;7.964;2022-11-14T00:29:02;6.90;85.30
4840;DHT22;2434;48.486;7.964;2022-11-14T00:31:49;7.00;85.70
4840;DHT22;2434;48.486;7.964;2022-11-14T00:34:38;7.00;85.00
4840;DHT22;2434;48.486;7.964;2022-11-14T00:37:25;7.00;84.80
4840;DHT22;2434;48.486;7.964;2022-11-14T00:40:12;7.00;84.50
4840;DHT22;2434;48.486;7.964;2022-11-14T00:42:59;7.00;84.50
4840;DHT22;2434;48.486;7.964;2022-11-14T00:45:47;7.00;84.80
4840;DHT22;2434;48.486;7.964;2022-11-14T00:48:35;7.00;84.90
4840;DHT22;2434;48.486;7.964;2022-11-14T00:51:23;7.00;84.90
4840;DHT22;2434;48.486;7.964;2022-11-14T00:54:10;6.90;85.40
4840;DHT22;2434;48.486;7.964;2022-11-14T00:56:57;6.90;85.70
4840;DHT22;2434;48.486;7.964;2022-11-14T00:59:44;6.90;85.40
4840;DHT22;2434;48.486;7.964;2022-11-14T01:02:31;6.90;85.50
4840;DHT22;2434;48.486;7.964;2022-11-14T01:05:18;6.80;85.80
4840;DHT22;2434;48.486;7.964;2022-11-14T01:08:06;6.80;85.90
4840;DHT22;2434;48.486;7.964;2022-11-14T01:10:53;6.70;86.40
4840;DHT22;2434;48.486;7.964;2022-11-14T01:13:40;6.70;87.10
4840;DHT22;2434;48.486;7.964;2022-11-14T01:16:27;6.80;86.00
4840;DHT22;2434;48.486;7.964;2022-11-14T01:19:14;6.70;86.00
4840;DHT22;2434;48.486;7.964;2022-11-14T01:22:01;6.70;85.80
4840;DHT22;2434;48.486;7.964;2022-11-14T01:24:52;6.70;86.00
4840;DHT22;2434;48.486;7.964;2022-11-14T01:27:39;6.70;85.80
4840;DHT22;2434;48.486;7.964;2022-11-14T01:30:26;6.70;85.80
4840;DHT22;2434;48.486;7.964;2022-11-14T01:33:13;6.60;86.80
4840;DHT22;2434;48.486;7.964;2022-11-14T01:36:00;6.60;86.50
4840;DHT22;2434;48.486;7.964;2022-11-14T01:38:51;6.60;87.00
4840;DHT22;2434;48.486;7.964;2022-11-14T01:41:39;6.60;87.20
4840;DHT22;2434;48.486;7.964;2022-11-14T01:44:44;6.60;86.60
4840;DHT22;2434;48.486;7.964;2022-11-14T01:47:32;6.60;86.60
4840;DHT22;2434;48.486;7.964;2022-11-14T01:50:19;6.60;86.40
4840;DHT22;2434;48.486;7.964;2022-11-14T01:53:05;6.70;86.40
4840;DHT22;2434;48.486;7.964;2022-11-14T01:55:55;6.70;86.20
4840;DHT22;2434;48.486;7.964;2022-11-14T01:58:48;6.70;85.80
4840;DHT22;2434;48.486;7.964;2022-11-14T02:01:41;6.60;85.70
4840;DHT22;2434;48.486;7.964;2022-11-14T02:04:33;6.60;86.20
4840;DHT22;2434;48.486;7.964;2022-11-14T02:07:22;6.60;86.70
4840;DHT22;2434;48.486;7.964;2022-11-14T02:10:16;6.60;86.60
4840;DHT22;2434;48.486;7.964;2022-11-14T02:13:03;6.60;86.40
4840;DHT22;2434;48.486;7.964;2022-11-14T02:15:52;6.70;86.40
4840;DHT22;2434;48.486;7.964;2022-11-14T02:18:39;6.70;86.60
4840;DHT22;2434;48.486;7.964;2022-11-14T02:21:28;6.70;87.10
4840;DHT22;2434;48.486;7.964;2022-11-14T02:24:14;6.80;86.50
4840;DHT22;2434;48.486;7.964;2022-11-14T02:27:03;6.90;86.20
4840;DHT22;2434;48.486;7.964;2022-11-14T02:29:51;6.80;86.20
4840;DHT22;2434;48.486;7.964;2022-11-14T02:32:38;6.90;86.70
4840;DHT22;2434;48.486;7.964;2022-11-14T02:35:45;6.90;85.50
4840;DHT22;2434;48.486;7.964;2022-11-14T02:38:33;6.90;85.90
4840;DHT22;2434;48.486;7.964;2022-11-14T02:41:20;6.90;85.70
4840;DHT22;2434;48.486;7.964;2022-11-14T02:44:08;6.90;85.50
4840;DHT22;2434;48.486;7.964;2022-11-14T02:46:55;6.90;84.90
4840;DHT22;2434;48.486;7.964;2022-11-14T02:49:42;7.00;84.50
4840;DHT22;2434;48.486;7.964;2022-11-14T02:52:29;6.90;84.00
4840;DHT22;2434;48.486;7.964;2022-11-14T02:55:18;7.00;84.20
4840;DHT22;2434;48.486;7.964;2022-11-14T02:58:05;6.90;83.30
4840;DHT22;2434;48.486;7.964;2022-11-14T03:00:52;6.90;84.50
4840;DHT22;2434;48.486;7.964;2022-11-14T03:03:59;6.90;84.50
4840;DHT22;2434;48.486;7.964;2022-11-14T03:06:46;7.00;84.70
4840;DHT22;2434;48.486;7.964;2022-11-14T03:09:33;7.00;84.40
4840;DHT22;2434;48.486;7.964;2022-11-14T03:12:21;6.90;84.70
4840;DHT22;2434;48.486;7.964;2022-11-14T03:15:09;6.90;84.10
4840;DHT22;2434;48.486;7.964;2022-11-14T03:17:56;6.80;83.80
4840;DHT22;2434;48.486;7.964;2022-11-14T03:20:43;6.90;84.00
4840;DHT22;2434;48.486;7.964;2022-11-14T03:23:31;6.90;83.50
4840;DHT22;2434;48.486;7.964;2022-11-14T03:26:17;6.90;83.50
4840;DHT22;2434;48.486;7.964;2022-11-14T03:29:06;6.90;83.50
4840;DHT22;2434;48.486;7.964;2022-11-14T03:31:53;6.90;83.60
4840;DHT22;2434;48.486;7.964;2022-11-14T03:34:41;6.90;83.20
4840;DHT22;2434;48.486;7.964;2022-11-14T03:37:28;6.80;82.90
4840;DHT22;2434;48.486;7.964;2022-11-14T03:40:15;6.70;82.60
4840;DHT22;2434;48.486;7.964;2022-11-14T03:43:02;6.70;82.70
4840;DHT22;2434;48.486;7.964;2022-11-14T03:45:50;6.60;83.30
4840;DHT22;2434;48.486;7.964;2022-11-14T03:48:38;6.60;83.90
4840;DHT22;2434;48.486;7.964;2022-11-14T03:51:24;6.70;84.00
4840;DHT22;2434;48.486;7.964;2022-11-14T03:54:12;6.70;84.00
4840;DHT22;2434;48.486;7.964;2022-11-14T03:56:59;6.70;83.40
4840;DHT22;2434;48.486;7.964;2022-11-14T03:59:45;6.80;83.50
4840;DHT22;2434;48.486;7.964;2022-11-14T04:02:33;6.80;83.50
4840;DHT22;2434;48.486;7.964;2022-11-14T04:05:20;6.70;83.40
4840;DHT22;2434;48.486;7.964;2022-11-14T04:08:07;6.80;84.00
4840;DHT22;2434;48.486;7.964;2022-11-14T04:10:54;6.80;83.60
4840;DHT22;2434;48.486;7.964;2022-11-14T04:13:41;6.90;83.10
4840;DHT22;2434;48.486;7.964;2022-11-14T04:16:28;6.90;83.20
4840;DHT22;2434;48.486;7.964;2022-11-14T04:19:16;7.00;83.00
4840;DHT22;2434;48.486;7.964;2022-11-14T04:22:03;7.00;82.60
4840;DHT22;2434;48.486;7.964;2022-11-14T04:24:50;7.00;82.60
4840;DHT22;2434;48.486;7.964;2022-11-14T04:27:38;7.00;82.70
4840;DHT22;2434;48.486;7.964;2022-11-14T04:30:25;7.00;82.40
4840;DHT22;2434;48.486;7.964;2022-11-14T04:33:18;7.00;82.40
4840;DHT22;2434;48.486;7.964;2022-11-14T04:36:07;7.00;82.30
4840;DHT22;2434;48.486;7.964;2022-11-14T04:38:54;6.90;82.50
4840;DHT22;2434;48.486;7.964;2022-11-14T04:41:41;6.90;82.70
4840;DHT22;2434;48.486;7.964;2022-11-14T04:44:29;6.80;82.60
4840;DHT22;2434;48.486;7.964;2022-11-14T04:47:16;6.80;82.70
4840;DHT22;2434;48.486;7.964;2022-11-14T04:50:03;6.80;82.60
4840;DHT22;2434;48.486;7.964;2022-11-14T04:52:52;6.80;82.50
4840;DHT22;2434;48.486;7.964;2022-11-14T04:55:39;6.80;82.40
4840;DHT22;2434;48.486;7.964;2022-11-14T04:58:25;6.80;82.40
4840;DHT22;2434;48.486;7.964;2022-11-14T05:01:14;6.70;82.10
4840;DHT22;2434;48.486;7.964;2022-11-14T05:04:00;6.80;82.30
4840;DHT22;2434;48.486;7.964;2022-11-14T05:06:47;6.70;81.60
4840;DHT22;2434;48.486;7.964;2022-11-14T05:09:37;6.60;83.30
4840;DHT22;2434;48.486;7.964;2022-11-14T05:12:24;6.60;83.30
4840;DHT22;2434;48.486;7.964;2022-11-14T05:15:11;6.70;83.60
4840;DHT22;2434;48.486;7.964;2022-11-14T05:17:58;6.80;82.40
4840;DHT22;2434;48.486;7.964;2022-11-14T05:20:45;6.60;82.90
4840;DHT22;2434;48.486;7.964;2022-11-14T05:23:32;6.60;85.20
4840;DHT22;2434;48.486;7.964;2022-11-14T05:26:21;6.70;84.00
4840;DHT22;2434;48.486;7.964;2022-11-14T05:29:09;6.80;83.30
4840;DHT22;2434;48.486;7.964;2022-11-14T05:31:56;6.90;82.80
4840;DHT22;2434;48.486;7.964;2022-11-14T05:34:43;7.00;82.60
4840;DHT22;2434;48.486;7.964;2022-11-14T05:37:30;7.00;83.00
4840;DHT22;2434;48.486;7.964;2022-11-14T05:40:17;6.70;83.50
4840;DHT22;2434;48.486;7.964;2022-11-14T05:43:05;6.80;84.00
4840;DHT22;2434;48.486;7.964;2022-11-14T05:45:51;6.70;84.70
4840;DHT22;2434;48.486;7.964;2022-11-14T05:48:39;6.90;84.90
4840;DHT22;2434;48.486;7.964;2022-11-14T05:51:26;6.90;83.50
4840;DHT22;2434;48.486;7.964;2022-11-14T05:54:13;7.00;83.30
4840;DHT22;2434;48.486;7.964;2022-11-14T05:57:00;7.00;83.10
4840;DHT22;2434;48.486;7.964;2022-11-14T05:59:48;7.00;83.00
4840;DHT22;2434;48.486;7.964;2022-11-14T06:02:35;7.00;83.80
4840;DHT22;2434;48.486;7.964;2022-11-14T06:05:22;7.00;82.90
4840;DHT22;2434;48.486;7.964;2022-11-14T06:08:09;7.00;82.60
4840;DHT22;2434;48.486;7.964;2022-11-14T06:10:58;6.90;82.50
4840;DHT22;2434;48.486;7.964;2022-11-14T06:13:46;6.90;80.90
4840;DHT22;2434;48.486;7.964;2022-11-14T06:16:35;6.50;83.40
4840;DHT22;2434;48.486;7.964;2022-11-14T06:19:22;6.70;83.70
4840;DHT22;2434;48.486;7.964;2022-11-14T06:22:09;6.80;83.00
4840;DHT22;2434;48.486;7.964;2022-11-14T06:24:56;6.90;82.30
4840;DHT22;2434;48.486;7.964;2022-11-14T06:27:43;6.70;81.00
4840;DHT22;2434;48.486;7.964;2022-11-14T06:30:29;6.60;83.40
4840;DHT22;2434;48.486;7.964;2022-11-14T06:33:18;6.70;83.30
4840;DHT22;2434;48.486;7.964;2022-11-14T06:36:06;6.70;82.70
4840;DHT22;2434;48.486;7.964;2022-11-14T06:38:54;6.70;82.80
4840;DHT22;2434;48.486;7.964;2022-11-14T06:41:41;6.80;82.70
4840;DHT22;2434;48.486;7.964;2022-11-14T06:44:27;6.30;84.90
4840;DHT22;2434;48.486;7.964;2022-11-14T06:47:15;6.30;88.00
4840;DHT22;2434;48.486;7.964;2022-11-14T06:50:05;6.20;87.50
4840;DHT22;2434;48.486;7.964;2022-11-14T06:52:52;6.20;90.70
4840;DHT22;2434;48.486;7.964;2022-11-14T06:55:38;6.50;88.20
4840;DHT22;2434;48.486;7.964;2022-11-14T06:58:26;6.70;86.80
4840;DHT22;2434;48.486;7.964;2022-11-14T07:01:15;6.40;87.20
4840;DHT22;2434;48.486;7.964;2022-11-14T07:04:03;6.30;89.20
4840;DHT22;2434;48.486;7.964;2022-11-14T07:06:51;6.00;91.00
4840;DHT22;2434;48.486;7.964;2022-11-14T07:09:38;6.20;91.70
4840;DHT22;2434;48.486;7.964;2022-11-14T07:12:25;6.40;90.40
4840;DHT22;2434;48.486;7.964;2022-11-14T07:15:13;6.00;91.30
4840;DHT22;2434;48.486;7.964;2022-11-14T07:18:00;6.20;92.50
4840;DHT22;2434;48.486;7.964;2022-11-14T07:20:47;6.30;91.20
4840;DHT22;2434;48.486;7.964;2022-11-14T07:23:35;6.50;90.90
4840;DHT22;2434;48.486;7.964;2022-11-14T07:26:23;6.60;89.20
4840;DHT22;2434;48.486;7.964;2022-11-14T07:29:10;6.80;88.10
4840;DHT22;2434;48.486;7.964;2022-11-14T07:31:56;6.90;87.50
4840;DHT22;2434;48.486;7.964;2022-11-14T07:34:43;6.80;87.20
4840;DHT22;2434;48.486;7.964;2022-11-14T07:37:30;6.90;86.80
4840;DHT22;2434;48.486;7.964;2022-11-14T07:40:18;6.90;87.50
4840;DHT22;2434;48.486;7.964;2022-11-14T07:43:05;6.80;86.60
4840;DHT22;2434;48.486;7.964;2022-11-14T07:45:52;6.90;86.90
4840;DHT22;2434;48.486;7.964;2022-11-14T07:48:39;7.00;86.50
4840;DHT22;2434;48.486;7.964;2022-11-14T07:51:26;7.00;86.50
4840;DHT22;2434;48.486;7.964;2022-11-14T07:54:13;6.80;86.70
4840;DHT22;2434;48.486;7.964;2022-11-14T07:57:01;6.70;88.10
4840;DHT22;2434;48.486;7.964;2022-11-14T07:59:48;6.70;88.60
4840;DHT22;2434;48.486;7.964;2022-11-14T08:02:35;6.90;88.10
4840;DHT22;2434;48.486;7.964;2022-11-14T08:05:22;6.90;87.60
4840;DHT22;2434;48.486;7.964;2022-11-14T08:08:09;7.00;86.30
4840;DHT22;2434;48.486;7.964;2022-11-14T08:10:56;6.60;85.70
4840;DHT22;2434;48.486;7.964;2022-11-14T08:13:44;6.50;88.80
4840;DHT22;2434;48.486;7.964;2022-11-14T08:16:31;6.30;88.90
4840;DHT22;2434;48.486;7.964;2022-11-14T08:19:18;6.30;91.80
4840;DHT22;2434;48.486;7.964;2022-11-14T08:22:06;6.50;90.70
4840;DHT22;2434;48.486;7.964;2022-11-14T08:24:52;6.50;88.70
4840;DHT22;2434;48.486;7.964;2022-11-14T08:27:39;6.20;90.40
4840;DHT22;2434;48.486;7.964;2022-11-14T08:30:28;6.10;92.10
4840;DHT22;2434;48.486;7.964;2022-11-14T08:33:15;5.90;93.10
4840;DHT22;2434;48.486;7.964;2022-11-14T08:36:04;5.90;93.90
4840;DHT22;2434;48.486;7.964;2022-11-14T08:38:51;6.00;93.30
4840;DHT22;2434;48.486;7.964;2022-11-14T08:41:44;6.30;93.70
4840;DHT22;2434;48.486;7.964;2022-11-14T08:44:31;6.20;92.30
4840;DHT22;2434;48.486;7.964;2022-11-14T08:47:19;6.30;91.70
4840;DHT22;2434;48.486;7.964;2022-11-14T08:50:07;6.40;92.80
4840;DHT22;2434;48.486;7.964;2022-11-14T08:52:54;6.60;91.30
4840;DHT22;2434;48.486;7.964;2022-11-14T08:55:42;6.80;90.40
4840;DHT22;2434;48.486;7.964;2022-11-14T08:58:30;6.90;89.30
4840;DHT22;2434;48.486;7.964;2022-11-14T09:01:17;6.80;89.50
4840;DHT22;2434;48.486;7.964;2022-11-14T09:04:07;6.90;90.10
4840;DHT22;2434;48.486;7.964;2022-11-14T09:06:54;6.90;89.50
4840;DHT22;2434;48.486;7.964;2022-11-14T09:09:41;7.00;89.50
4840;DHT22;2434;48.486;7.964;2022-11-14T09:12:28;7.10;88.70
4840;DHT22;2434;48.486;7.964;2022-11-14T09:15:15;7.20;88.80
4840;DHT22;2434;48.486;7.964;2022-11-14T09:18:02;7.30;87.90
4840;DHT22;2434;48.486;7.964;2022-11-14T09:20:50;7.30;87.90
4840;DHT22;2434;48.486;7.964;2022-11-14T09:23:37;7.20;88.30
4840;DHT22;2434;48.486;7.964;2022-11-14T09:26:24;7.20;88.60
4840;DHT22;2434;48.486;7.964;2022-11-14T09:29:11;7.20;89.20
4840;DHT22;2434;48.486;7.964;2022-11-14T09:31:58;7.00;90.50
4840;DHT22;2434;48.486;7.964;2022-11-14T09:34:45;6.90;92.30
4840;DHT22;2434;48.486;7.964;2022-11-14T09:37:33;6.90;93.90
4840;DHT22;2434;48.486;7.964;2022-11-14T09:40:20;7.00;93.80
4840;DHT22;2434;48.486;7.964;2022-11-14T09:43:27;6.90;93.90
4840;DHT22;2434;48.486;7.964;2022-11-14T09:46:21;7.10;94.20
4840;DHT22;2434;48.486;7.964;2022-11-14T09:49:18;7.00;94.00
4840;DHT22;2434;48.486;7.964;2022-11-14T09:52:16;7.00;95.20
4840;DHT22;2434;48.486;7.964;2022-11-14T09:55:12;7.00;95.70
4840;DHT22;2434;48.486;7.964;2022-11-14T09:58:01;7.00;95.70
4840;DHT22;2434;48.486;7.964;2022-11-14T10:00:52;7.10;95.80
4840;DHT22;2434;48.486;7.964;2022-11-14T10:03:46;7.20;95.20
4840;DHT22;2434;48.486;7.964;2022-11-14T10:06:39;7.20;94.80
4840;DHT22;2434;48.486;7.964;2022-11-14T10:09:42;7.20;94.80
4840;DHT22;2434;48.486;7.964;2022-11-14T10:12:42;7.20;96.00
4840;DHT22;2434;48.486;7.964;2022-11-14T10:15:38;7.20;95.50
4840;DHT22;2434;48.486;7.964;2022-11-14T10:18:48;7.20;95.80
4840;DHT22;2434;48.486;7.964;2022-11-14T10:21:45;7.20;95.70
4840;DHT22;2434;48.486;7.964;2022-11-14T10:24:48;7.20;96.00
4840;DHT22;2434;48.486;7.964;2022-11-14T10:27:42;7.20;95.60
4840;DHT22;2434;48.486;7.964;2022-11-14T10:30:40;7.30;96.10
4840;DHT22;2434;48.486;7.964;2022-11-14T10:33:39;7.30;96.10
4840;DHT22;2434;48.486;7.964;2022-11-14T10:36:46;7.30;96.70
4840;DHT22;2434;48.486;7.964;2022-11-14T10:39:38;7.40;96.40
4840;DHT22;2434;48.486;7.964;2022-11-14T10:42:31;7.40;96.00
4840;DHT22;2434;48.486;7.964;2022-11-14T10:45:25;7.50;96.30
4840;DHT22;2434;48.486;7.964;2022-11-14T10:48:16;7.50;95.80
4840;DHT22;2434;48.486;7.964;2022-11-14T10:51:07;7.60;95.50
4840;DHT22;2434;48.486;7.964;2022-11-14T10:54:00;7.60;94.80
4840;DHT22;2434;48.486;7.964;2022-11-14T10:56:51;7.60;94.60
4840;DHT22;2434;48.486;7.964;2022-11-14T10:59:38;7.60;94.30
4840;DHT22;2434;48.486;7.964;2022-11-14T11:02:46;7.50;93.90
4840;DHT22;2434;48.486;7.964;2022-11-14T11:05:47;7.50;93.30
4840;DHT22;2434;48.486;7.964;2022-11-14T11:08:40;7.50;93.30
4840;DHT22;2434;48.486;7.964;2022-11-14T11:11:54;7.60;93.50
4840;DHT22;2434;48.486;7.964;2022-11-14T11:14:42;7.60;93.40
4840;DHT22;2434;48.486;7.964;2022-11-14T11:17:32;7.70;93.80
4840;DHT22;2434;48.486;7.964;2022-11-14T11:20:29;7.70;92.30
4840;DHT22;2434;48.486;7.964;2022-11-14T11:23:19;7.70;93.30
4840;DHT22;2434;48.486;7.964;2022-11-14T11:26:16;7.80;93.30
4840;DHT22;2434;48.486;7.964;2022-11-14T11:29:06;7.90;93.30
4840;DHT22;2434;48.486;7.964;2022-11-14T11:31:55;7.90;92.10
4840;DHT22;2434;48.486;7.964;2022-11-14T11:34:44;7.90;91.10
4840;DHT22;2434;48.486;7.964;2022-11-14T11:37:35;8.00;91.70
4840;DHT22;2434;48.486;7.964;2022-11-14T11:40:26;8.00;91.70
4840;DHT22;2434;48.486;7.964;2022-11-14T11:43:17;8.00;92.10
4840;DHT22;2434;48.486;7.964;2022-11-14T11:46:28;8.00;92.10
4840;DHT22;2434;48.486;7.964;2022-11-14T11:49:18;8.10;92.20
4840;DHT22;2434;48.486;7.964;2022-11-14T11:52:16;8.10;92.30
4840;DHT22;2434;48.486;7.964;2022-11-14T11:55:15;8.10;92.50
4840;DHT22;2434;48.486;7.964;2022-11-14T11:58:05;8.10;92.50
4840;DHT22;2434;48.486;7.964;2022-11-14T12:00:57;8.10;93.10
4840;DHT22;2434;48.486;7.964;2022-11-14T12:03:47;8.20;92.50
4840;DHT22;2434;48.486;7.964;2022-11-14T12:06:38;8.20;93.20
4840;DHT22;2434;48.486;7.964;2022-11-14T12:09:35;8.30;93.00
4840;DHT22;2434;48.486;7.964;2022-11-14T12:13:14;8.40;92.60
4840;DHT22;2434;48.486;7.964;2022-11-14T12:16:14;8.50;92.70
4840;DHT22;2434;48.486;7.964;2022-11-14T12:19:41;8.60;92.50
4840;DHT22;2434;48.486;7.964;2022-11-14T12:23:03;8.70;93.30
4840;DHT22;2434;48.486;7.964;2022-11-14T12:26:07;8.90;94.60
4840;DHT22;2434;48.486;7.964;2022-11-14T12:29:12;9.20;94.30
4840;DHT22;2434;48.486;7.964;2022-11-14T12:32:14;9.40;93.60
4840;DHT22;2434;48.486;7.964;2022-11-14T12:35:05;9.60;92.70
4840;DHT22;2434;48.486;7.964;2022-11-14T12:37:55;9.90;91.50
4840;DHT22;2434;48.486;7.964;2022-11-14T12:40:49;10.30;88.70
4840;DHT22;2434;48.486;7.964;2022-11-14T12:43:39;10.60;85.60
4840;DHT22;2434;48.486;7.964;2022-11-14T12:49:58;11.00;82.40
4840;DHT22;2434;48.486;7.964;2022-11-14T12:52:47;11.20;81.50
4840;DHT22;2434;48.486;7.964;2022-11-14T12:56:13;11.30;81.00
4840;DHT22;2434;48.486;7.964;2022-11-14T12:59:12;11.40;80.00
4840;DHT22;2434;48.486;7.964;2022-11-14T13:02:35;11.60;79.70
4840;DHT22;2434;48.486;7.964;2022-11-14T13:05:39;11.70;78.20
4840;DHT22;2434;48.486;7.964;2022-11-14T13:12:26;11.90;76.20
4840;DHT22;2434;48.486;7.964;2022-11-14T13:15:33;12.10;75.00
4840;DHT22;2434;48.486;7.964;2022-11-14T13:18:52;12.20;74.20
4840;DHT22;2434;48.486;7.964;2022-11-14T13:22:37;12.30;74.10
4840;DHT22;2434;48.486;7.964;2022-11-14T13:25:25;12.40;72.30
4840;DHT22;2434;48.486;7.964;2022-11-14T13:28:43;12.50;70.30
4840;DHT22;2434;48.486;7.964;2022-11-14T13:31:50;12.60;70.60
4840;DHT22;2434;48.486;7.964;2022-11-14T13:34:49;12.70;70.80
4840;DHT22;2434;48.486;7.964;2022-11-14T13:37:55;12.70;68.30
4840;DHT22;2434;48.486;7.964;2022-11-14T13:40:51;12.80;69.00
4840;DHT22;2434;48.486;7.964;2022-11-14T13:43:54;12.90;68.70
4840;DHT22;2434;48.486;7.964;2022-11-14T13:47:06;13.00;68.00
4840;DHT22;2434;48.486;7.964;2022-11-14T13:50:03;13.00;66.40
4840;DHT22;2434;48.486;7.964;2022-11-14T13:52:51;13.10;65.10
4840;DHT22;2434;48.486;7.964;2022-11-14T13:55:51;13.10;64.90
4840;DHT22;2434;48.486;7.964;2022-11-14T13:58:56;13.10;65.20
4840;DHT22;2434;48.486;7.964;2022-11-14T14:01:56;13.10;64.60
4840;DHT22;2434;48.486;7.964;2022-11-14T14:04:58;13.20;65.20
4840;DHT22;2434;48.486;7.964;2022-11-14T14:08:07;13.20;64.20
4840;DHT22;2434;48.486;7.964;2022-11-14T14:11:14;13.20;65.30
4840;DHT22;2434;48.486;7.964;2022-11-14T14:14:15;13.20;62.70
4840;DHT22;2434;48.486;7.964;2022-11-14T14:17:10;13.30;63.10
4840;DHT22;2434;48.486;7.964;2022-11-14T14:20:13;13.30;63.20
4840;DHT22;2434;48.486;7.964;2022-11-14T14:23:14;13.30;63.00
4840;DHT22;2434;48.486;7.964;2022-11-14T14:26:20;13.30;63.00
4840;DHT22;2434;48.486;7.964;2022-11-14T14:29:19;13.30;62.40
4840;DHT22;2434;48.486;7.964;2022-11-14T14:32:11;13.40;60.80
4840;DHT22;2434;48.486;7.964;2022-11-14T14:34:58;13.40;60.90
4840;DHT22;2434;48.486;7.964;2022-11-14T14:37:50;13.50;60.90
4840;DHT22;2434;48.486;7.964;2022-11-14T14:40:39;13.50;61.00
4840;DHT22;2434;48.486;7.964;2022-11-14T14:43:30;13.50;60.40
4840;DHT22;2434;48.486;7.964;2022-11-14T14:46:26;13.50;60.90
4840;DHT22;2434;48.486;7.964;2022-11-14T14:49:18;13.50;59.40
4840;DHT22;2434;48.486;7.964;2022-11-14T14:52:20;13.50;58.80
4840;DHT22;2434;48.486;7.964;2022-11-14T14:55:20;13.50;59.20
4840;DHT22;2434;48.486;7.964;2022-11-14T14:58:14;13.60;58.50
4840;DHT22;2434;48.486;7.964;2022-11-14T15:01:09;13.60;58.50
4840;DHT22;2434;48.486;7.964;2022-11-14T15:04:01;13.60;57.90
4840;DHT22;2434;48.486;7.964;2022-11-14T15:06:50;13.70;57.40
4840;DHT22;2434;48.486;7.964;2022-11-14T15:09:36;13.70;57.20
4840;DHT22;2434;48.486;7.964;2022-11-14T15:12:27;13.70;58.10
4840;DHT22;2434;48.486;7.964;2022-11-14T15:15:16;13.70;56.70
4840;DHT22;2434;48.486;7.964;2022-11-14T15:18:06;13.70;55.60
4840;DHT22;2434;48.486;7.964;2022-11-14T15:21:08;13.70;56.60
4840;DHT22;2434;48.486;7.964;2022-11-14T15:24:00;13.80;55.50
4840;DHT22;2434;48.486;7.964;2022-11-14T15:26:48;13.80;56.60
4840;DHT22;2434;48.486;7.964;2022-11-14T15:29:44;13.70;56.40
4840;DHT22;2434;48.486;7.964;2022-11-14T15:32:31;13.70;55.90
4840;DHT22;2434;48.486;7.964;2022-11-14T15:35:27;13.70;55.30
4840;DHT22;2434;48.486;7.964;2022-11-14T15:38:19;13.70;56.40
4840;DHT22;2434;48.486;7.964;2022-11-14T15:41:27;13.70;56.30
4840;DHT22;2434;48.486;7.964;2022-11-14T15:44:28;13.60;56.60
4840;DHT22;2434;48.486;7.964;2022-11-14T15:47:22;13.70;56.30
4840;DHT22;2434;48.486;7.964;2022-11-14T15:50:26;13.80;56.90
4840;DHT22;2434;48.486;7.964;2022-11-14T15:53:20;13.80;57.40
4840;DHT22;2434;48.486;7.964;2022-11-14T15:56:10;13.70;57.50
4840;DHT22;2434;48.486;7.964;2022-11-14T15:58:57;13.80;56.80
4840;DHT22;2434;48.486;7.964;2022-11-14T16:01:46;13.70;56.20
4840;DHT22;2434;48.486;7.964;2022-11-14T16:04:36;13.70;57.70
4840;DHT22;2434;48.486;7.964;2022-11-14T16:07:30;13.60;58.80
4840;DHT22;2434;48.486;7.964;2022-11-14T16:10:19;13.50;64.10
4840;DHT22;2434;48.486;7.964;2022-11-14T16:13:06;13.40;64.20
4840;DHT22;2434;48.486;7.964;2022-11-14T16:15:55;13.30;66.90
4840;DHT22;2434;48.486;7.964;2022-11-14T16:18:43;13.30;69.90
4840;DHT22;2434;48.486;7.964;2022-11-14T16:21:32;13.20;73.40
4840;DHT22;2434;48.486;7.964;2022-11-14T16:24:21;13.10;74.20
4840;DHT22;2434;48.486;7.964;2022-11-14T16:27:08;13.00;75.10
4840;DHT22;2434;48.486;7.964;2022-11-14T16:29:55;13.20;74.80
4840;DHT22;2434;48.486;7.964;2022-11-14T16:32:44;13.30;70.80
4840;DHT22;2434;48.486;7.964;2022-11-14T16:35:32;13.30;69.40
4840;DHT22;2434;48.486;7.964;2022-11-14T16:38:20;13.40;69.40
4840;DHT22;2434;48.486;7.964;2022-11-14T16:41:08;13.30;67.80
4840;DHT22;2434;48.486;7.964;2022-11-14T16:43:58;13.40;66.20
4840;DHT22;2434;48.486;7.964;2022-11-14T16:46:45;13.50;65.90
4840;DHT22;2434;48.486;7.964;2022-11-14T16:49:32;13.50;64.00
4840;DHT22;2434;48.486;7.964;2022-11-14T16:52:19;13.60;63.60
4840;DHT22;2434;48.486;7.964;2022-11-14T16:55:09;13.60;62.90
4840;DHT22;2434;48.486;7.964;2022-11-14T16:57:56;13.70;61.60
4840;DHT22;2434;48.486;7.964;2022-11-14T17:00:43;13.70;60.20
4840;DHT22;2434;48.486;7.964;2022-11-14T17:03:30;13.80;61.20
4840;DHT22;2434;48.486;7.964;2022-11-14T17:06:18;13.80;61.80
4840;DHT22;2434;48.486;7.964;2022-11-14T17:09:05;13.80;61.30
4840;DHT22;2434;48.486;7.964;2022-11-14T17:11:53;13.80;60.30
4840;DHT22;2434;48.486;7.964;2022-11-14T17:14:40;13.90;59.80
4840;DHT22;2434;48.486;7.964;2022-11-14T17:17:27;13.90;59.60
4840;DHT22;2434;48.486;7.964;2022-11-14T17:20:14;13.90;59.20
4840;DHT22;2434;48.486;7.964;2022-11-14T17:23:02;14.00;58.40
4840;DHT22;2434;48.486;7.964;2022-11-14T17:25:48;14.00;57.90
4840;DHT22;2434;48.486;7.964;2022-11-14T17:28:37;14.00;58.50
4840;DHT22;2434;48.486;7.964;2022-11-14T17:31:24;14.00;57.90
4840;DHT22;2434;48.486;7.964;2022-11-14T17:34:12;14.10;57.60
4840;DHT22;2434;48.486;7.964;2022-11-14T17:36:58;14.00;57.30
4840;DHT22;2434;48.486;7.964;2022-11-14T17:39:45;14.00;57.20
4840;DHT22;2434;48.486;7.964;2022-11-14T17:42:32;14.10;55.80
4840;DHT22;2434;48.486;7.964;2022-11-14T17:45:21;14.10;57.40
4840;DHT22;2434;48.486;7.964;2022-11-14T17:48:08;14.10;55.70
4840;DHT22;2434;48.486;7.964;2022-11-14T17:50:55;14.10;55.70
4840;DHT22;2434;48.486;7.964;2022-11-14T17:53:42;14.20;55.60
4840;DHT22;2434;48.486;7.964;2022-11-14T17:56:29;14.20;55.70
4840;DHT22;2434;48.486;7.964;2022-11-14T17:59:16;14.20;54.80
4840;DHT22;2434;48.486;7.964;2022-11-14T18:02:08;14.20;55.20
4840;DHT22;2434;48.486;7.964;2022-11-14T18:04:57;14.20;55.20
4840;DHT22;2434;48.486;7.964;2022-11-14T18:07:44;14.10;54.40
4840;DHT22;2434;48.486;7.964;2022-11-14T18:10:31;14.20;54.10
4840;DHT22;2434;48.486;7.964;2022-11-14T18:13:17;14.10;53.50
4840;DHT22;2434;48.486;7.964;2022-11-14T18:16:06;14.20;54.20
4840;DHT22;2434;48.486;7.964;2022-11-14T18:18:56;14.20;53.80
4840;DHT22;2434;48.486;7.964;2022-11-14T18:21:43;14.30;53.60
4840;DHT22;2434;48.486;7.964;2022-11-14T18:24:38;14.30;52.80
4840;DHT22;2434;48.486;7.964;2022-11-14T18:27:31;14.20;53.60
4840;DHT22;2434;48.486;7.964;2022-11-14T18:30:18;14.20;53.30
4840;DHT22;2434;48.486;7.964;2022-11-14T18:33:25;14.30;53.20
4840;DHT22;2434;48.486;7.964;2022-11-14T18:36:14;14.30;52.80
4840;DHT22;2434;48.486;7.964;2022-11-14T18:39:01;14.30;51.90
4840;DHT22;2434;48.486;7.964;2022-11-14T18:41:48;14.30;52.30
4840;DHT22;2434;48.486;7.964;2022-11-14T18:44:36;14.40;51.90
4840;DHT22;2434;48.486;7.964;2022-11-14T18:47:22;14.40;51.20
4840;DHT22;2434;48.486;7.964;2022-11-14T18:50:09;14.40;52.20
4840;DHT22;2434;48.486;7.964;2022-11-14T18:52:58;14.40;52.70
4840;DHT22;2434;48.486;7.964;2022-11-14T18:55:45;14.40;52.30